Time;durP1;ratioP1;P1;durP2;ratioP2;P2;SDS_P1;SDS_P2;PMS_P1;PMS_P2;Temp;Humidity;BMP_temperature;BMP_pressure;BME280_temperature;BME280_humidity;BME280_pressure;Samples;Min_cycle;Max_cycle;Signal;HPM_P1;HPM_P2
2022/04/02 00:00:59;;;;;;;;;;;23.90;44.10;;;;;;1573345;75;1939;-64
2022/04/02 00:03:01;;;;;;;;;;;23.90;44.10;;;;;;1572595;75;1141;-64
2022/04/02 00:05:03;;;;;;;;;;;23.90;44.10;;;;;;1546570;77;639;-64
2022/04/02 00:07:05;;;;;;;;;;;23.80;44.10;;;;;;1546652;77;721;-64
2022/04/02 00:09:06;;;;;;;;;;;23.80;44.10;;;;;;1546552;77;734;-65
2022/04/02 00:11:08;;;;;;;;;;;23.80;44.10;;;;;;1546653;77;732;-64
2022/04/02 00:13:10;;;;;;;;;;;23.90;44.10;;;;;;1564907;75;1115;-65
2022/04/02 00:15:12;;;;;;;;;;;23.90;44.10;;;;;;1573374;75;769;-64
2022/04/02 00:17:14;;;;;;;;;;;23.80;44.00;;;;;;1599808;74;732;-64
2022/04/02 00:19:16;;;;;;;;;;;23.90;44.20;;;;;;1600945;74;739;-64
2022/04/02 00:21:18;;;;;;;;;;;23.80;44.10;;;;;;1588339;74;1981;-64
2022/04/02 00:25:40;;;;;;;;;;;23.70;44.20;;;;;;1571796;75;1689;-65
2022/04/02 00:27:42;;;;;;;;;;;23.80;44.10;;;;;;1573297;75;769;-65
2022/04/02 00:29:44;;;;;;;;;;;23.80;44.20;;;;;;1573247;75;737;-65
2022/04/02 00:31:46;;;;;;;;;;;23.80;44.30;;;;;;1573096;75;670;-65
2022/04/02 00:33:48;;;;;;;;;;;23.80;44.10;;;;;;1572955;75;743;-66
2022/04/02 00:35:50;;;;;;;;;;;23.90;44.10;;;;;;1571976;75;759;-66
2022/04/02 00:37:52;;;;;;;;;;;23.90;44.00;;;;;;1573434;75;807;-65
2022/04/02 00:39:54;;;;;;;;;;;23.80;43.90;;;;;;1573458;75;785;-65
2022/04/02 00:41:57;;;;;;;;;;;23.80;44.00;;;;;;1573337;75;1958;-65
2022/04/02 00:43:59;;;;;;;;;;;23.90;44.00;;;;;;1572231;75;730;-65
2022/04/02 00:46:02;;;;;;;;;;;23.90;43.90;;;;;;1573332;75;846;-65
2022/04/02 00:48:04;;;;;;;;;;;23.90;43.90;;;;;;1573496;75;797;-65
2022/04/02 00:50:06;;;;;;;;;;;23.90;43.90;;;;;;1573408;75;700;-65
2022/04/02 00:52:08;;;;;;;;;;;23.90;43.80;;;;;;1572816;75;1124;-65
2022/04/02 00:54:11;;;;;;;;;;;23.90;43.80;;;;;;1573423;75;717;-65
2022/04/02 00:56:13;;;;;;;;;;;23.90;43.90;;;;;;1543090;77;660;-65
2022/04/02 00:58:15;;;;;;;;;;;23.90;43.90;;;;;;1573315;75;665;-65
2022/04/02 01:00:17;;;;;;;;;;;23.80;43.80;;;;;;1573474;75;1945;-64
2022/04/02 01:02:19;;;;;;;;;;;23.80;43.80;;;;;;1573299;75;1135;-65
2022/04/02 01:04:21;;;;;;;;;;;23.90;43.90;;;;;;1571990;75;778;-65
2022/04/02 01:06:23;;;;;;;;;;;23.80;43.80;;;;;;1575464;74;741;-65
2022/04/02 01:08:25;;;;;;;;;;;23.70;43.80;;;;;;1573808;74;819;-65
2022/04/02 01:10:27;;;;;;;;;;;23.80;43.80;;;;;;1571815;75;769;-65
2022/04/02 01:12:29;;;;;;;;;;;23.80;43.80;;;;;;1571876;75;1068;-64
2022/04/02 01:14:31;;;;;;;;;;;23.80;43.90;;;;;;1572069;75;673;-64
2022/04/02 01:16:33;;;;;;;;;;;23.70;43.90;;;;;;1575329;74;788;-63
2022/04/02 01:18:35;;;;;;;;;;;23.80;44.00;;;;;;1573388;75;681;-65
2022/04/02 01:20:37;;;;;;;;;;;23.70;43.90;;;;;;1573376;75;1950;-64
2022/04/02 01:22:39;;;;;;;;;;;23.70;43.90;;;;;;1573375;75;1127;-64
2022/04/02 01:24:41;;;;;;;;;;;23.70;43.90;;;;;;1571415;75;762;-64
2022/04/02 01:26:43;;;;;;;;;;;23.70;44.00;;;;;;1573264;74;799;-64
2022/04/02 01:28:53;;;;;;;;;;;23.70;43.90;;;;;;1573430;75;766;-64
2022/04/02 01:30:48;;;;;;;;;;;23.70;44.00;;;;;;1571619;75;1616;-64
2022/04/02 01:32:50;;;;;;;;;;;23.70;43.90;;;;;;1572804;75;1133;-64
2022/04/02 01:34:52;;;;;;;;;;;23.70;44.00;;;;;;1573498;75;729;-65
2022/04/02 01:36:54;;;;;;;;;;;23.70;43.90;;;;;;1573472;75;723;-65
2022/04/02 01:38:56;;;;;;;;;;;23.70;43.90;;;;;;1573440;75;711;-65
2022/04/02 01:40:57;;;;;;;;;;;23.70;43.90;;;;;;1573488;75;1930;-65
2022/04/02 01:42:59;;;;;;;;;;;23.70;43.90;;;;;;1572174;74;1113;-64
2022/04/02 01:45:01;;;;;;;;;;;23.70;43.90;;;;;;1573500;75;780;-64
2022/04/02 01:47:03;;;;;;;;;;;23.70;43.90;;;;;;1573408;75;705;-65
2022/04/02 01:49:05;;;;;;;;;;;23.70;43.90;;;;;;1573459;75;640;-64
2022/04/02 01:51:07;;;;;;;;;;;23.70;43.90;;;;;;1572167;75;632;-64
2022/04/02 01:53:09;;;;;;;;;;;23.70;43.90;;;;;;1573341;75;1112;-65
2022/04/02 01:55:11;;;;;;;;;;;23.70;43.90;;;;;;1572169;75;740;-64
2022/04/02 01:57:13;;;;;;;;;;;23.70;43.90;;;;;;1572749;75;741;-64
2022/04/02 01:59:15;;;;;;;;;;;23.70;44.00;;;;;;1574144;74;819;-64
2022/04/02 02:01:17;;;;;;;;;;;23.70;43.90;;;;;;1578605;74;1946;-64
2022/04/02 02:03:18;;;;;;;;;;;23.70;43.80;;;;;;1588252;74;1112;-65
2022/04/02 02:05:20;;;;;;;;;;;23.70;43.80;;;;;;1586353;74;744;-65
2022/04/02 02:07:22;;;;;;;;;;;23.70;43.90;;;;;;1572433;74;660;-64
2022/04/02 02:09:24;;;;;;;;;;;23.70;43.80;;;;;;1573252;75;748;-64
2022/04/02 02:11:26;;;;;;;;;;;23.70;43.80;;;;;;1573441;75;715;-64
2022/04/02 02:13:28;;;;;;;;;;;23.60;43.70;;;;;;1573349;75;1113;-65
2022/04/02 02:15:30;;;;;;;;;;;23.60;43.70;;;;;;1571982;75;763;-64
2022/04/02 02:17:32;;;;;;;;;;;23.60;43.70;;;;;;1573377;75;771;-65
2022/04/02 02:19:34;;;;;;;;;;;23.70;43.80;;;;;;1573307;75;766;-66
2022/04/02 02:21:35;;;;;;;;;;;23.70;43.80;;;;;;1573378;75;1946;-65
2022/04/02 02:23:37;;;;;;;;;;;23.70;43.80;;;;;;1571941;75;1092;-65
2022/04/02 02:25:39;;;;;;;;;;;23.80;43.70;;;;;;1572181;75;688;-65
2022/04/02 02:27:42;;;;;;;;;;;23.70;43.70;;;;;;1573541;75;721;-65
2022/04/02 02:29:43;;;;;;;;;;;23.70;43.60;;;;;;1573428;75;701;-65
2022/04/02 02:31:45;;;;;;;;;;;23.70;43.70;;;;;;1573505;75;785;-65
2022/04/02 02:36:07;;;;;;;;;;;23.70;43.60;;;;;;1600242;74;1685;-65
2022/04/02 02:38:09;;;;;;;;;;;23.70;43.50;;;;;;1601160;74;807;-65
2022/04/02 02:40:12;;;;;;;;;;;23.70;43.60;;;;;;1600950;74;770;-65
2022/04/02 02:42:14;;;;;;;;;;;23.70;43.60;;;;;;1589019;74;1919;-65
2022/04/02 02:44:16;;;;;;;;;;;23.70;43.60;;;;;;1573356;75;754;-65
2022/04/02 02:46:18;;;;;;;;;;;23.70;43.60;;;;;;1573219;75;799;-65
2022/04/02 02:48:21;;;;;;;;;;;23.70;43.60;;;;;;1573341;75;703;-64
2022/04/02 02:50:23;;;;;;;;;;;23.70;43.60;;;;;;1572675;75;786;-65
2022/04/02 02:52:25;;;;;;;;;;;23.70;43.60;;;;;;1573311;75;1069;-64
2022/04/02 02:54:27;;;;;;;;;;;23.70;43.60;;;;;;1572902;75;752;-65
2022/04/02 02:56:29;;;;;;;;;;;23.70;43.60;;;;;;1573222;75;744;-65
2022/04/02 02:58:31;;;;;;;;;;;23.70;43.50;;;;;;1573451;75;712;-65
2022/04/02 03:00:33;;;;;;;;;;;23.80;43.50;;;;;;1573321;75;784;-65
2022/04/02 03:02:37;;;;;;;;;;;23.80;43.40;;;;;;1574966;73;226809;-64
2022/04/02 03:04:39;;;;;;;;;;;23.90;43.40;;;;;;1578204;75;1243;-66
2022/04/02 03:06:41;;;;;;;;;;;23.90;43.40;;;;;;1587496;74;917;-66
2022/04/02 03:08:43;;;;;;;;;;;23.80;43.30;;;;;;1595991;74;773;-65
2022/04/02 03:10:44;;;;;;;;;;;23.90;43.30;;;;;;1581526;74;781;-67
2022/04/02 03:12:47;;;;;;;;;;;23.90;43.30;;;;;;1551750;75;1189;-64
2022/04/02 03:14:49;;;;;;;;;;;23.90;43.20;;;;;;1551364;76;658;-65
2022/04/02 03:16:50;;;;;;;;;;;23.80;43.20;;;;;;1551264;76;651;-66
2022/04/02 03:18:52;;;;;;;;;;;23.80;43.30;;;;;;1546705;76;795;-68
2022/04/02 03:20:54;;;;;;;;;;;23.80;43.30;;;;;;1525652;76;1057;-67
2022/04/02 03:22:56;;;;;;;;;;;23.80;43.40;;;;;;1525451;78;1931;-67
2022/04/02 03:24:58;;;;;;;;;;;23.80;43.40;;;;;;1526941;76;705;-66
2022/04/02 03:27:00;;;;;;;;;;;23.90;43.50;;;;;;1525589;78;713;-67
2022/04/02 03:29:02;;;;;;;;;;;23.90;43.50;;;;;;1525729;78;806;-67
2022/04/02 03:31:04;;;;;;;;;;;23.80;43.50;;;;;;1525624;77;1157;-67
2022/04/02 03:33:06;;;;;;;;;;;23.80;43.40;;;;;;1526865;76;661;-67
2022/04/02 03:35:08;;;;;;;;;;;23.80;43.40;;;;;;1525565;78;781;-68
2022/04/02 03:37:10;;;;;;;;;;;23.70;43.50;;;;;;1525535;78;751;-68
2022/04/02 03:39:12;;;;;;;;;;;23.80;43.50;;;;;;1525725;78;642;-67
2022/04/02 03:41:14;;;;;;;;;;;23.90;43.50;;;;;;1526900;76;1960;-67
2022/04/02 03:43:16;;;;;;;;;;;23.90;43.50;;;;;;1525642;78;657;-67
2022/04/02 03:45:18;;;;;;;;;;;23.90;43.50;;;;;;1525534;78;832;-66
2022/04/02 03:47:22;;;;;;;;;;;23.90;43.40;;;;;;1525668;78;716;-66
2022/04/02 03:49:26;;;;;;;;;;;23.90;43.40;;;;;;1526602;76;1693;-66
2022/04/02 03:51:27;;;;;;;;;;;23.80;43.40;;;;;;1525380;77;1619;-67
2022/04/02 03:53:29;;;;;;;;;;;23.80;43.40;;;;;;1525598;78;550;-66
2022/04/02 03:55:31;;;;;;;;;;;23.90;43.40;;;;;;1526893;76;792;-66
2022/04/02 03:57:34;;;;;;;;;;;23.90;43.40;;;;;;1545488;77;729;-66
2022/04/02 03:59:36;;;;;;;;;;;23.90;43.40;;;;;;1550063;77;664;-66
2022/04/02 04:01:38;;;;;;;;;;;23.90;43.40;;;;;;1550006;75;1933;-66
2022/04/02 04:03:40;;;;;;;;;;;23.80;43.30;;;;;;1548413;76;932;-65
2022/04/02 04:05:43;;;;;;;;;;;23.80;43.30;;;;;;1526664;76;743;-66
2022/04/02 04:07:45;;;;;;;;;;;23.80;43.40;;;;;;1551376;76;716;-67
2022/04/02 04:09:47;;;;;;;;;;;23.80;43.50;;;;;;1551310;76;754;-66
2022/04/02 04:11:49;;;;;;;;;;;23.80;43.40;;;;;;1550076;75;1128;-66
2022/04/02 04:13:51;;;;;;;;;;;23.90;43.60;;;;;;1539840;76;723;-66
2022/04/02 04:15:53;;;;;;;;;;;23.80;43.50;;;;;;1525620;78;709;-66
2022/04/02 04:17:56;;;;;;;;;;;23.90;43.60;;;;;;1525880;78;728;-65
2022/04/02 04:19:58;;;;;;;;;;;23.90;43.50;;;;;;1532955;76;719;-65
2022/04/02 04:22:00;;;;;;;;;;;23.90;43.50;;;;;;1550969;75;1939;-65
2022/04/02 04:24:02;;;;;;;;;;;23.90;43.60;;;;;;1548142;76;806;-63
2022/04/02 04:26:03;;;;;;;;;;;23.90;43.70;;;;;;1528529;76;773;-64
2022/04/02 04:28:05;;;;;;;;;;;23.90;44.20;;;;;;1525681;78;723;-63
2022/04/02 04:30:08;;;;;;;;;;;23.80;43.80;;;;;;1525662;78;738;-63
2022/04/02 04:32:10;;;;;;;;;;;23.90;44.30;;;;;;1525587;77;1217;-64
2022/04/02 04:34:12;;;;;;;;;;;23.80;44.10;;;;;;1527009;76;744;-64
2022/04/02 04:36:15;;;;;;;;;;;23.80;44.50;;;;;;1525526;78;732;-62
2022/04/02 04:38:16;;;;;;;;;;;23.70;44.30;;;;;;1530283;76;647;-68
2022/04/02 04:40:18;;;;;;;;;;;23.70;44.70;;;;;;1546029;76;736;-70
2022/04/02 04:42:21;;;;;;;;;;;23.60;44.40;;;;;;1548490;76;1951;-70
2022/04/02 04:44:23;;;;;;;;;;;23.70;44.20;;;;;;1551323;76;764;-71
2022/04/02 04:46:25;;;;;;;;;;;23.70;44.00;;;;;;1550911;76;792;-70
2022/04/02 04:48:27;;;;;;;;;;;23.80;43.90;;;;;;1551218;76;750;-70
2022/04/02 04:50:28;;;;;;;;;;;23.80;43.60;;;;;;1551443;76;714;-71
2022/04/02 04:52:30;;;;;;;;;;;23.90;43.60;;;;;;1543453;76;1193;-71
2022/04/02 04:54:32;;;;;;;;;;;23.80;43.40;;;;;;1536504;76;656;-71
2022/04/02 04:56:34;;;;;;;;;;;23.90;43.40;;;;;;1542487;76;734;-66
2022/04/02 04:58:36;;;;;;;;;;;23.90;43.40;;;;;;1546429;77;661;-65
2022/04/02 05:00:38;;;;;;;;;;;23.80;43.60;;;;;;1550543;77;786;-67
2022/04/02 05:02:40;;;;;;;;;;;23.70;43.80;;;;;;1542359;75;1958;-64
2022/04/02 05:04:42;;;;;;;;;;;23.70;44.20;;;;;;1543750;76;694;-66
2022/04/02 05:06:44;;;;;;;;;;;23.60;44.00;;;;;;1548564;76;727;-64
2022/04/02 05:08:46;;;;;;;;;;;23.60;44.30;;;;;;1547229;76;724;-68
2022/04/02 05:10:48;;;;;;;;;;;23.50;44.40;;;;;;1549133;76;657;-68
2022/04/02 05:12:50;;;;;;;;;;;23.50;44.20;;;;;;1551851;76;744;-69
2022/04/02 05:14:52;;;;;;;;;;;23.50;44.20;;;;;;1544919;76;749;-68
2022/04/02 05:16:54;;;;;;;;;;;23.40;44.00;;;;;;1547867;76;775;-69
2022/04/02 05:18:56;;;;;;;;;;;23.50;44.10;;;;;;1549239;76;800;-69
2022/04/02 05:20:58;;;;;;;;;;;23.40;43.90;;;;;;1549506;75;1104;-68
2022/04/02 05:23:00;;;;;;;;;;;23.30;43.90;;;;;;1557364;76;1934;-68
2022/04/02 05:25:02;;;;;;;;;;;23.30;43.90;;;;;;1545232;76;1087;-68
2022/04/02 05:27:04;;;;;;;;;;;23.30;43.80;;;;;;1547352;76;719;-69
2022/04/02 05:29:06;;;;;;;;;;;23.30;43.80;;;;;;1553289;76;828;-69
2022/04/02 05:31:08;;;;;;;;;;;23.40;43.80;;;;;;1548882;75;1163;-68
2022/04/02 05:33:11;;;;;;;;;;;23.30;43.80;;;;;;1556526;76;750;-68
2022/04/02 05:35:13;;;;;;;;;;;23.30;43.80;;;;;;1558291;76;647;-68
2022/04/02 05:37:15;;;;;;;;;;;23.30;43.90;;;;;;1551913;76;738;-69
2022/04/02 05:39:16;;;;;;;;;;;23.30;43.70;;;;;;1551335;76;704;-67
2022/04/02 05:41:18;;;;;;;;;;;23.30;43.70;;;;;;1548816;75;1092;-67
2022/04/02 05:43:20;;;;;;;;;;;23.20;43.70;;;;;;1555147;76;1947;-66
2022/04/02 05:45:22;;;;;;;;;;;23.20;43.60;;;;;;1555196;76;909;-67
2022/04/02 05:47:24;;;;;;;;;;;23.30;43.80;;;;;;1551379;76;721;-68
2022/04/02 05:49:26;;;;;;;;;;;23.40;43.50;;;;;;1546610;76;808;-68
2022/04/02 05:51:28;;;;;;;;;;;23.30;43.50;;;;;;1549996;75;1133;-69
2022/04/02 05:53:30;;;;;;;;;;;23.20;43.40;;;;;;1546965;76;657;-69
2022/04/02 05:55:32;;;;;;;;;;;23.20;43.40;;;;;;1543880;76;747;-68
2022/04/02 05:57:34;;;;;;;;;;;23.20;43.40;;;;;;1542858;76;728;-67
2022/04/02 05:59:36;;;;;;;;;;;23.20;43.40;;;;;;1552126;76;909;-68
2022/04/02 06:01:38;;;;;;;;;;;23.20;43.40;;;;;;1551299;76;1126;-68
2022/04/02 06:03:40;;;;;;;;;;;23.10;43.40;;;;;;1549513;75;1933;-61
2022/04/02 06:05:42;;;;;;;;;;;23.10;43.40;;;;;;1582027;75;735;-63
2022/04/02 06:07:44;;;;;;;;;;;23.10;43.50;;;;;;1579402;75;778;-61
2022/04/02 06:09:46;;;;;;;;;;;23.10;43.60;;;;;;1568263;74;734;-61
2022/04/02 06:11:48;;;;;;;;;;;23.10;43.60;;;;;;1565199;75;1137;-61
2022/04/02 06:13:50;;;;;;;;;;;23.10;43.60;;;;;;1566541;74;782;-60
2022/04/02 06:15:52;;;;;;;;;;;23.10;43.50;;;;;;1564107;75;715;-61
2022/04/02 06:17:54;;;;;;;;;;;23.10;43.60;;;;;;1565235;75;729;-61
2022/04/02 06:19:55;;;;;;;;;;;23.10;43.50;;;;;;1562112;75;698;-61
2022/04/02 06:21:57;;;;;;;;;;;23.10;43.50;;;;;;1560324;75;1119;-63
2022/04/02 06:24:04;;;;;;;;;;;23.10;43.60;;;;;;1562236;74;1944;-64
2022/04/02 06:26:03;;;;;;;;;;;23.10;43.60;;;;;;1565974;75;1495;-63
2022/04/02 06:28:05;;;;;;;;;;;23.10;43.60;;;;;;1575806;75;811;-62
2022/04/02 06:30:07;;;;;;;;;;;23.10;43.60;;;;;;1570208;75;733;-62
2022/04/02 06:32:09;;;;;;;;;;;23.00;43.50;;;;;;1569470;74;1167;-62
2022/04/02 06:34:11;;;;;;;;;;;23.00;43.50;;;;;;1565470;75;736;-65
2022/04/02 06:36:16;;;;;;;;;;;23.10;43.60;;;;;;1568568;74;881;-62
2022/04/02 06:38:17;;;;;;;;;;;23.00;43.40;;;;;;1562035;74;1643;-62
2022/04/02 06:40:19;;;;;;;;;;;23.00;43.40;;;;;;1562450;75;673;-62
2022/04/02 06:42:21;;;;;;;;;;;23.00;43.40;;;;;;1562309;75;1954;-62
2022/04/02 06:44:22;;;;;;;;;;;23.00;43.50;;;;;;1558889;75;791;-65
2022/04/02 06:46:24;;;;;;;;;;;23.00;43.50;;;;;;1561307;75;680;-62
2022/04/02 06:48:26;;;;;;;;;;;23.10;43.60;;;;;;1560478;75;729;-62
2022/04/02 06:50:28;;;;;;;;;;;23.00;43.60;;;;;;1562305;75;809;-62
2022/04/02 06:52:30;;;;;;;;;;;23.10;43.90;;;;;;1562376;75;1120;-60
2022/04/02 06:54:33;;;;;;;;;;;23.00;43.80;;;;;;1559459;75;763;-62
2022/04/02 06:56:35;;;;;;;;;;;23.00;43.90;;;;;;1554972;75;742;-62
2022/04/02 06:58:39;;;;;;;;;;;23.00;43.80;;;;;;1584103;75;657;-63
2022/04/02 07:00:41;;;;;;;;;;;23.00;43.80;;;;;;1583758;75;712;-62
2022/04/02 07:02:43;;;;;;;;;;;23.00;43.70;;;;;;1573105;75;1937;-62
2022/04/02 07:04:45;;;;;;;;;;;23.00;43.80;;;;;;1576279;75;809;-62
2022/04/02 07:06:47;;;;;;;;;;;23.00;43.70;;;;;;1572360;74;710;-62
2022/04/02 07:08:48;;;;;;;;;;;23.00;43.60;;;;;;1566490;74;715;-62
2022/04/02 07:10:50;;;;;;;;;;;23.00;43.70;;;;;;1570609;74;1163;-64
2022/04/02 07:12:52;;;;;;;;;;;23.00;43.60;;;;;;1562363;75;647;-62
2022/04/02 07:14:54;;;;;;;;;;;23.00;43.60;;;;;;1567845;75;783;-64
2022/04/02 07:16:56;;;;;;;;;;;23.00;43.60;;;;;;1564764;75;749;-62
2022/04/02 07:18:58;;;;;;;;;;;23.00;43.50;;;;;;1566952;75;951;-62
2022/04/02 07:21:01;;;;;;;;;;;23.00;43.50;;;;;;1563326;75;1143;-61
2022/04/02 07:23:03;;;;;;;;;;;23.00;43.50;;;;;;1560224;74;1921;-65
2022/04/02 07:25:05;;;;;;;;;;;23.00;43.40;;;;;;1561576;75;912;-63
2022/04/02 07:27:07;;;;;;;;;;;23.00;43.30;;;;;;1562178;74;766;-63
2022/04/02 07:29:09;;;;;;;;;;;23.00;43.20;;;;;;1565895;74;748;-63
2022/04/02 07:31:11;;;;;;;;;;;23.00;43.10;;;;;;1571384;75;1173;-64
2022/04/02 07:33:13;;;;;;;;;;;23.00;43.00;;;;;;1566719;75;705;-63
2022/04/02 07:35:15;;;;;;;;;;;23.00;42.90;;;;;;1561324;75;794;-62
2022/04/02 07:37:34;;;;;;;;;;;23.00;42.90;;;;;;1563981;75;730;-63
2022/04/02 07:39:55;;;;;;;;;;;23.00;42.80;;;;;;1564624;75;599;-63
2022/04/02 07:42:04;;;;;;;;;;;22.90;42.80;;;;;;1564438;75;1138;-62
2022/04/02 07:44:10;;;;;;;;;;;23.00;42.70;;;;;;1560062;75;1944;-62
2022/04/02 07:46:17;;;;;;;;;;;23.00;42.70;;;;;;1563479;75;2083;-63
2022/04/02 07:48:19;;;;;;;;;;;23.00;42.60;;;;;;1565824;75;598;-62
2022/04/02 07:50:21;;;;;;;;;;;22.90;42.70;;;;;;1563986;75;785;-63
2022/04/02 07:52:23;;;;;;;;;;;22.90;42.70;;;;;;1539181;76;1122;-62
2022/04/02 07:54:26;;;;;;;;;;;23.00;42.60;;;;;;1560180;75;776;-63
2022/04/02 07:56:31;;;;;;;;;;;22.90;42.60;;;;;;1566247;75;898;-62
2022/04/02 07:58:35;;;;;;;;;;;23.00;42.60;;;;;;1565335;75;729;-62
2022/04/02 08:00:37;;;;;;;;;;;22.90;42.60;;;;;;1568744;75;641;-64
2022/04/02 08:02:43;;;;;;;;;;;23.00;42.60;;;;;;1561392;75;1091;-65
2022/04/02 08:04:44;;;;;;;;;;;22.90;42.60;;;;;;1570530;75;1475;-62
2022/04/02 08:06:47;;;;;;;;;;;23.00;42.60;;;;;;1538335;75;695;-62
2022/04/02 08:08:49;;;;;;;;;;;23.00;42.60;;;;;;1571531;75;743;-63
2022/04/02 08:10:54;;;;;;;;;;;23.00;42.60;;;;;;1563328;75;1146;-62
2022/04/02 08:12:57;;;;;;;;;;;22.90;42.60;;;;;;1561751;75;764;-63
2022/04/02 08:14:59;;;;;;;;;;;23.00;42.60;;;;;;1569980;74;760;-61
2022/04/02 08:17:01;;;;;;;;;;;22.90;42.60;;;;;;1564753;75;780;-64
2022/04/02 08:19:03;;;;;;;;;;;22.90;42.60;;;;;;1564785;75;713;-62
2022/04/02 08:21:05;;;;;;;;;;;23.00;42.60;;;;;;1560590;75;1153;-62
2022/04/02 08:23:07;;;;;;;;;;;23.00;42.60;;;;;;1533513;76;1936;-63
2022/04/02 08:25:09;;;;;;;;;;;23.00;42.60;;;;;;1560893;75;728;-62
2022/04/02 08:27:29;;;;;;;;;;;23.00;42.60;;;;;;1564213;75;734;-64
2022/04/02 08:29:32;;;;;;;;;;;23.00;42.60;;;;;;1562127;75;710;-63
2022/04/02 08:31:54;;;;;;;;;;;22.90;42.60;;;;;;1565119;75;1846;-63
2022/04/02 08:34:00;;;;;;;;;;;22.90;42.60;;;;;;1561691;75;702;-62
2022/04/02 08:36:16;;;;;;;;;;;23.00;42.60;;;;;;1566227;75;1960;-64
2022/04/02 08:38:20;;;;;;;;;;;23.00;42.60;;;;;;1559749;75;805;-61
2022/04/02 08:40:38;;;;;;;;;;;23.00;42.60;;;;;;1564986;74;1929;-63
2022/04/02 08:42:48;;;;;;;;;;;22.90;42.60;;;;;;1562375;74;1121;-62
2022/04/02 08:45:01;;;;;;;;;;;22.90;42.60;;;;;;1560652;75;1932;-63
2022/04/02 08:47:05;;;;;;;;;;;23.00;42.60;;;;;;1553431;75;722;-65
2022/04/02 08:49:17;;;;;;;;;;;22.90;42.50;;;;;;1561646;75;736;-63
2022/04/02 08:51:33;;;;;;;;;;;22.90;42.60;;;;;;1561911;75;1621;-64
2022/04/02 08:53:51;;;;;;;;;;;23.00;42.60;;;;;;1551760;75;1734;-63
2022/04/02 08:55:58;;;;;;;;;;;22.90;43.10;;;;;;1556425;75;706;-63
2022/04/02 08:58:14;;;;;;;;;;;22.90;43.60;;;;;;1556946;75;769;-64
2022/04/02 09:00:16;;;;;;;;;;;22.90;43.90;;;;;;1543294;76;989;-63
2022/04/02 09:02:36;;;;;;;;;;;22.90;43.80;;;;;;1550837;74;225954;-64
2022/04/02 09:04:43;;;;;;;;;;;23.00;45.00;;;;;;1516063;78;1927;-65
2022/04/02 09:07:02;;;;;;;;;;;22.90;46.00;;;;;;1527628;76;691;-64
2022/04/02 09:09:06;;;;;;;;;;;22.90;45.80;;;;;;1553457;76;2033;-64
2022/04/02 09:11:12;;;;;;;;;;;23.00;46.30;;;;;;1534589;76;706;-64
2022/04/02 09:13:32;;;;;;;;;;;22.90;46.00;;;;;;1537810;76;1830;-64
2022/04/02 09:15:54;;;;;;;;;;;23.00;46.00;;;;;;1545579;76;719;-65
2022/04/02 09:18:03;;;;;;;;;;;23.00;44.90;;;;;;1522141;76;753;-64
2022/04/02 09:20:07;;;;;;;;;;;23.00;45.10;;;;;;1535296;76;726;-64
2022/04/02 09:22:17;;;;;;;;;;;23.00;45.10;;;;;;1534448;76;1245;-64
2022/04/02 09:24:24;;;;;;;;;;;23.00;45.10;;;;;;1481475;76;1916;-63
2022/04/02 09:26:45;;;;;;;;;;;23.00;45.10;;;;;;1527931;76;1675;-64
2022/04/02 09:28:48;;;;;;;;;;;23.00;45.20;;;;;;1540342;76;715;-64
2022/04/02 09:31:04;;;;;;;;;;;23.00;45.00;;;;;;1547319;76;1857;-63
2022/04/02 09:33:08;;;;;;;;;;;22.90;45.00;;;;;;1531272;76;1201;-64
2022/04/02 09:35:17;;;;;;;;;;;23.00;44.90;;;;;;1533121;76;761;-64
2022/04/02 09:37:24;;;;;;;;;;;22.90;44.80;;;;;;1538597;76;699;-64
2022/04/02 09:39:39;;;;;;;;;;;22.90;44.70;;;;;;1536806;76;1614;-65
2022/04/02 09:41:43;;;;;;;;;;;22.90;44.70;;;;;;1536884;76;1872;-66
2022/04/02 09:44:03;;;;;;;;;;;22.90;44.70;;;;;;1524697;76;1940;-66
2022/04/02 09:46:06;;;;;;;;;;;22.90;44.70;;;;;;1536326;76;702;-65
2022/04/02 09:48:10;;;;;;;;;;;22.90;44.60;;;;;;1542718;76;809;-66
2022/04/02 09:50:13;;;;;;;;;;;22.90;44.60;;;;;;1532016;76;2019;-69
2022/04/02 09:52:25;;;;;;;;;;;22.90;44.50;;;;;;1540119;76;1235;-68
2022/04/02 09:54:31;;;;;;;;;;;22.90;44.40;;;;;;1550639;76;743;-67
2022/04/02 09:56:35;;;;;;;;;;;22.90;44.40;;;;;;1538440;76;720;-67
2022/04/02 09:58:54;;;;;;;;;;;22.90;44.40;;;;;;1547565;76;1702;-68
2022/04/02 10:01:05;;;;;;;;;;;22.80;44.30;;;;;;1530143;76;1774;-68
2022/04/02 10:03:08;;;;;;;;;;;22.90;44.50;;;;;;1540334;76;1081;-67
2022/04/02 10:05:12;;;;;;;;;;;22.90;44.50;;;;;;1542373;76;1915;-67
2022/04/02 10:07:16;;;;;;;;;;;22.80;44.20;;;;;;1537705;76;770;-67
2022/04/02 10:09:20;;;;;;;;;;;22.90;44.40;;;;;;1540926;76;1769;-68
2022/04/02 10:11:27;;;;;;;;;;;22.90;44.30;;;;;;1538122;76;741;-68
2022/04/02 10:13:30;;;;;;;;;;;22.90;44.30;;;;;;1539797;76;1200;-68
2022/04/02 10:15:35;;;;;;;;;;;22.90;44.20;;;;;;1534984;76;641;-68
2022/04/02 10:17:37;;;;;;;;;;;22.90;44.30;;;;;;1542294;76;730;-68
2022/04/02 10:19:42;;;;;;;;;;;22.90;44.20;;;;;;1547129;76;684;-67
2022/04/02 10:21:46;;;;;;;;;;;22.90;44.20;;;;;;1534226;76;793;-68
2022/04/02 10:23:49;;;;;;;;;;;22.90;44.20;;;;;;1542205;76;1937;-68
2022/04/02 10:25:53;;;;;;;;;;;22.90;44.10;;;;;;1533280;76;1690;-68
2022/04/02 10:27:55;;;;;;;;;;;22.90;44.10;;;;;;1536712;76;1341;-68
2022/04/02 10:30:11;;;;;;;;;;;22.90;44.10;;;;;;1545071;76;714;-68
2022/04/02 10:32:12;;;;;;;;;;;22.90;44.10;;;;;;1540610;76;1354;-66
2022/04/02 10:34:21;;;;;;;;;;;22.90;44.00;;;;;;1534013;76;721;-66
2022/04/02 10:36:23;;;;;;;;;;;22.90;44.00;;;;;;1538995;76;732;-66
2022/04/02 10:38:33;;;;;;;;;;;22.90;43.90;;;;;;1536249;76;969;-66
2022/04/02 10:40:42;;;;;;;;;;;22.90;44.00;;;;;;1541600;76;756;-66
2022/04/02 10:42:49;;;;;;;;;;;22.90;44.00;;;;;;1525008;76;1665;-66
2022/04/02 10:44:54;;;;;;;;;;;22.90;43.90;;;;;;1541501;76;1913;-66
2022/04/02 10:46:57;;;;;;;;;;;22.90;44.00;;;;;;1531183;76;1743;-66
2022/04/02 10:49:00;;;;;;;;;;;22.90;44.10;;;;;;1542202;76;808;-66
2022/04/02 10:51:02;;;;;;;;;;;22.90;44.20;;;;;;1534187;76;719;-66
2022/04/02 10:53:04;;;;;;;;;;;22.80;44.20;;;;;;1534410;76;1176;-66
2022/04/02 10:55:06;;;;;;;;;;;23.00;44.80;;;;;;1526450;76;725;-66
2022/04/02 10:57:08;;;;;;;;;;;23.00;45.00;;;;;;1541739;76;706;-66
2022/04/02 10:59:10;;;;;;;;;;;23.00;45.10;;;;;;1553178;76;749;-66
2022/04/02 11:01:12;;;;;;;;;;;22.90;45.00;;;;;;1545360;76;730;-66
2022/04/02 11:03:31;;;;;;;;;;;23.00;45.20;;;;;;1539682;76;1193;-66
2022/04/02 11:05:36;;;;;;;;;;;23.00;45.10;;;;;;1529095;76;1984;-66
2022/04/02 11:07:40;;;;;;;;;;;23.00;45.20;;;;;;1541246;76;769;-66
2022/04/02 11:09:43;;;;;;;;;;;23.00;45.20;;;;;;1526032;76;722;-66
2022/04/02 11:11:45;;;;;;;;;;;23.00;45.00;;;;;;1539019;76;652;-67
2022/04/02 11:13:47;;;;;;;;;;;23.00;45.10;;;;;;1532812;76;1128;-66
2022/04/02 11:15:49;;;;;;;;;;;23.00;45.30;;;;;;1507687;77;782;-66
2022/04/02 11:17:56;;;;;;;;;;;23.00;45.00;;;;;;1538594;76;842;-66
2022/04/02 11:19:56;;;;;;;;;;;23.00;45.00;;;;;;1532424;76;1376;-66
2022/04/02 11:22:00;;;;;;;;;;;23.00;45.00;;;;;;1544107;76;1853;-66
2022/04/02 11:24:02;;;;;;;;;;;22.90;45.00;;;;;;1532757;76;1928;-66
2022/04/02 11:26:05;;;;;;;;;;;23.00;45.00;;;;;;1535320;76;717;-66
2022/04/02 11:28:14;;;;;;;;;;;23.00;44.90;;;;;;1550693;76;827;-66
2022/04/02 11:30:16;;;;;;;;;;;23.00;44.90;;;;;;1543134;76;654;-67
2022/04/02 11:32:30;;;;;;;;;;;23.00;44.80;;;;;;1532660;76;1153;-67
2022/04/02 11:34:31;;;;;;;;;;;23.00;44.70;;;;;;1542117;76;1208;-66
2022/04/02 11:36:43;;;;;;;;;;;22.90;44.70;;;;;;1518786;77;713;-65
2022/04/02 11:38:55;;;;;;;;;;;23.00;44.80;;;;;;1552142;76;705;-66
2022/04/02 11:41:20;;;;;;;;;;;23.00;44.70;;;;;;1540326;76;1791;-66
2022/04/02 11:43:25;;;;;;;;;;;23.00;44.70;;;;;;1543886;76;1336;-66
2022/04/02 11:45:27;;;;;;;;;;;23.00;44.70;;;;;;1536873;76;1932;-66
2022/04/02 11:47:30;;;;;;;;;;;23.00;44.50;;;;;;1543312;76;749;-66
2022/04/02 11:49:33;;;;;;;;;;;23.10;44.60;;;;;;1534788;76;724;-66
2022/04/02 11:51:35;;;;;;;;;;;23.00;44.50;;;;;;1534044;76;1049;-66
2022/04/02 11:53:40;;;;;;;;;;;23.00;44.60;;;;;;1530608;76;1108;-67
2022/04/02 11:55:44;;;;;;;;;;;22.90;44.80;;;;;;1527163;77;680;-66
2022/04/02 11:57:59;;;;;;;;;;;22.90;44.80;;;;;;1534190;77;732;-67
2022/04/02 12:00:05;;;;;;;;;;;23.00;44.70;;;;;;1533461;77;1665;-67
2022/04/02 12:02:06;;;;;;;;;;;23.00;44.60;;;;;;1533716;76;1689;-67
2022/04/02 12:04:13;;;;;;;;;;;23.00;44.40;;;;;;1534104;77;1921;-67
2022/04/02 12:06:12;;;;;;;;;;;23.00;44.20;;;;;;1532825;77;1503;-67
2022/04/02 12:08:23;;;;;;;;;;;23.00;44.10;;;;;;1534279;77;787;-67
2022/04/02 12:10:27;;;;;;;;;;;23.00;43.80;;;;;;1551322;76;1685;-67
2022/04/02 12:12:29;;;;;;;;;;;23.20;43.60;;;;;;1515698;77;1187;-67
2022/04/02 12:14:37;;;;;;;;;;;23.30;43.40;;;;;;1535129;76;726;-67
2022/04/02 12:16:41;;;;;;;;;;;23.40;43.00;;;;;;1538905;76;657;-67
2022/04/02 12:18:57;;;;;;;;;;;23.40;42.60;;;;;;1536029;76;1462;-67
2022/04/02 12:21:07;;;;;;;;;;;23.50;42.60;;;;;;1533142;76;1349;-66
2022/04/02 12:23:09;;;;;;;;;;;23.50;42.60;;;;;;1530378;76;1157;-66